Time;durP1;ratioP1;P1;durP2;ratioP2;P2;SDS_P1;SDS_P2;PMS_P1;PMS_P2;Temp;Humidity;BMP_temperature;BMP_pressure;BME280_temperature;BME280_humidity;BME280_pressure;Samples;Min_cycle;Max_cycle;Signal;HPM_P1;HPM_P2
2022/08/08 00:02:29;;;;;;;3.15;1.40;;;;;;;;;;5093035;28;20036;-72
2022/08/08 00:05:04;;;;;;;3.90;1.58;;;;;;;;;;5093187;28;20032;-72
2022/08/08 00:07:36;;;;;;;1.85;1.52;;;;;;;;;;5092821;28;20024;-73
2022/08/08 00:10:05;;;;;;;5.40;1.38;;;;;;;;;;5093136;28;20385;-72
2022/08/08 00:12:42;;;;;;;1.33;1.23;;;;;;;;;;5092927;28;20028;-72
2022/08/08 00:15:11;;;;;;;3.65;1.40;;;;;;;;;;5092961;28;20046;-72
2022/08/08 00:17:44;;;;;;;2.53;1.40;;;;;;;;;;5092708;28;20020;-72
2022/08/08 00:20:12;;;;;;;4.45;1.48;;;;;;;;;;5092820;28;20028;-72
2022/08/08 00:22:39;;;;;;;2.67;1.48;;;;;;;;;;5092416;28;20077;-73
2022/08/08 00:25:08;;;;;;;3.63;1.38;;;;;;;;;;5092554;28;20026;-72
2022/08/08 00:27:35;;;;;;;5.82;1.98;;;;;;;;;;5091626;28;20024;-73
2022/08/08 00:30:06;;;;;;;1.63;1.50;;;;;;;;;;5092787;28;20038;-72
2022/08/08 00:32:36;;;;;;;2.70;1.50;;;;;;;;;;5074733;28;20044;-72
2022/08/08 00:35:15;;;;;;;1.90;1.67;;;;;;;;;;5092296;28;20038;-72
2022/08/08 00:37:59;;;;;;;1.55;1.35;;;;;;;;;;5091939;28;20020;-72
2022/08/08 00:40:28;;;;;;;4.57;1.33;;;;;;;;;;5092119;28;20043;-72
2022/08/08 00:43:13;;;;;;;1.52;1.33;;;;;;;;;;5092656;28;20039;-73
2022/08/08 00:45:39;;;;;;;3.15;1.33;;;;;;;;;;5092626;28;20034;-72
2022/08/08 00:48:12;;;;;;;1.75;1.45;;;;;;;;;;5092360;28;20397;-72
2022/08/08 00:50:56;;;;;;;2.95;1.48;;;;;;;;;;5092252;28;20030;-72
2022/08/08 00:53:41;;;;;;;2.08;1.40;;;;;;;;;;5092489;28;20521;-72
2022/08/08 00:56:23;;;;;;;4.45;1.52;;;;;;;;;;5092077;28;20024;-72
2022/08/08 00:59:11;;;;;;;6.38;1.60;;;;;;;;;;5092421;28;20030;-72
2022/08/08 01:01:56;;;;;;;3.53;1.40;;;;;;;;;;5092390;28;20035;-73
2022/08/08 01:04:41;;;;;;;2.35;1.48;;;;;;;;;;5092042;28;20032;-72
2022/08/08 01:07:23;;;;;;;2.00;1.40;;;;;;;;;;5091714;28;20028;-73
2022/08/08 01:10:09;;;;;;;2.10;1.30;;;;;;;;;;5091981;28;20359;-72
2022/08/08 01:12:37;;;;;;;4.05;1.33;;;;;;;;;;5029732;28;20041;-72
2022/08/08 01:15:06;;;;;;;3.58;1.33;;;;;;;;;;5029591;28;20045;-72
2022/08/08 01:17:32;;;;;;;2.35;1.60;;;;;;;;;;5029643;28;20035;-72
2022/08/08 01:20:27;;;;;;;5.18;1.70;;;;;;;;;;5029529;28;20030;-73
2022/08/08 01:23:05;;;;;;;1.80;1.30;;;;;;;;;;5029891;28;20022;-72
2022/08/08 01:25:49;;;;;;;3.08;1.80;;;;;;;;;;5029589;28;20116;-72
2022/08/08 01:28:34;;;;;;;3.15;1.80;;;;;;;;;;5029541;28;20033;-72
2022/08/08 01:31:06;;;;;;;1.98;1.40;;;;;;;;;;5029800;28;20029;-72
2022/08/08 01:33:33;;;;;;;1.58;1.48;;;;;;;;;;5029766;28;20040;-72
2022/08/08 01:36:18;;;;;;;1.92;1.50;;;;;;;;;;5028968;28;20033;-72
2022/08/08 01:38:50;;;;;;;1.73;1.40;;;;;;;;;;5029826;28;20037;-72
2022/08/08 01:41:24;;;;;;;2.85;1.42;;;;;;;;;;5029806;28;20132;-72
2022/08/08 01:43:58;;;;;;;3.13;1.52;;;;;;;;;;5029749;28;20042;-72
2022/08/08 01:46:39;;;;;;;1.92;1.40;;;;;;;;;;5029372;28;20071;-72
2022/08/08 01:49:12;;;;;;;3.95;1.60;;;;;;;;;;5040103;28;20047;-73
2022/08/08 01:51:50;;;;;;;1.85;1.50;;;;;;;;;;5071605;28;20028;-73
2022/08/08 01:54:35;;;;;;;3.05;1.70;;;;;;;;;;5071463;28;20029;-72
2022/08/08 01:57:13;;;;;;;2.00;1.50;;;;;;;;;;5071510;28;20050;-72
2022/08/08 01:59:45;;;;;;;5.30;1.58;;;;;;;;;;5071370;28;20397;-72
2022/08/08 02:02:21;;;;;;;2.15;1.85;;;;;;;;;;5071436;28;20027;-72
2022/08/08 02:04:53;;;;;;;3.47;1.70;;;;;;;;;;5071219;28;20016;-72
2022/08/08 02:07:23;;;;;;;2.92;1.63;;;;;;;;;;5072914;28;20035;-72
2022/08/08 02:09:58;;;;;;;3.60;1.50;;;;;;;;;;5075173;28;20032;-72
2022/08/08 02:12:27;;;;;;;3.17;1.42;;;;;;;;;;5074732;28;20024;-72
2022/08/08 02:15:00;;;;;;;1.95;1.70;;;;;;;;;;5074861;28;20047;-72
2022/08/08 02:17:26;;;;;;;2.30;1.70;;;;;;;;;;5073909;28;20028;-72
2022/08/08 02:20:11;;;;;;;2.85;1.70;;;;;;;;;;5075259;28;20021;-72
2022/08/08 02:22:53;;;;;;;2.58;1.85;;;;;;;;;;5075098;28;20036;-72
2022/08/08 02:25:25;;;;;;;2.72;1.75;;;;;;;;;;5074570;28;20389;-72
2022/08/08 02:28:10;;;;;;;2.92;1.48;;;;;;;;;;5074921;28;20016;-72
2022/08/08 02:30:45;;;;;;;3.13;1.67;;;;;;;;;;5074681;28;20017;-72
2022/08/08 02:33:11;;;;;;;6.85;1.65;;;;;;;;;;5074213;28;20028;-72
2022/08/08 02:35:44;;;;;;;4.82;1.75;;;;;;;;;;5089906;28;20080;-72
2022/08/08 02:38:16;;;;;;;2.22;1.83;;;;;;;;;;5094868;28;20031;-72
2022/08/08 02:41:03;;;;;;;1.52;1.30;;;;;;;;;;5094550;28;20044;-72
2022/08/08 02:43:58;;;;;;;1.80;1.70;;;;;;;;;;5094549;28;20024;-72
2022/08/08 02:46:27;;;;;;;4.43;1.40;;;;;;;;;;5032266;28;20033;-72
2022/08/08 02:49:12;;;;;;;2.75;1.60;;;;;;;;;;5031802;28;20025;-72
2022/08/08 02:51:55;;;;;;;2.53;1.60;;;;;;;;;;5031938;28;20042;-72
2022/08/08 02:54:33;;;;;;;5.03;1.70;;;;;;;;;;5032018;28;20103;-72
2022/08/08 02:57:05;;;;;;;1.98;1.45;;;;;;;;;;5032067;28;20026;-72
2022/08/08 02:59:44;;;;;;;2.15;1.50;;;;;;;;;;5032148;28;20034;-72
2022/08/08 03:02:10;;;;;;;2.08;1.58;;;;;;;;;;5031551;28;20022;-72
2022/08/08 03:05:08;;;;;;;1.58;1.48;;;;;;;;;;5031887;28;20041;-72
2022/08/08 03:07:58;;;;;;;1.73;1.60;;;;;;;;;;4953553;28;20442;-72
2022/08/08 03:10:50;;;;;;;2.13;1.50;;;;;;;;;;4896555;29;20040;-72
2022/08/08 03:13:39;;;;;;;4.70;1.52;;;;;;;;;;4896641;29;20438;-72
2022/08/08 03:16:07;;;;;;;1.75;1.50;;;;;;;;;;4896285;29;20633;-72
2022/08/08 03:18:46;;;;;;;2.40;1.95;;;;;;;;;;4896301;29;20042;-72
2022/08/08 03:21:12;;;;;;;3.53;1.83;;;;;;;;;;4896552;29;20037;-72
2022/08/08 03:23:38;;;;;;;2.83;1.88;;;;;;;;;;4960879;28;20045;-72
2022/08/08 03:26:05;;;;;;;1.75;1.45;;;;;;;;;;4972708;28;20031;-72
2022/08/08 03:28:42;;;;;;;3.58;1.58;;;;;;;;;;4972844;28;20053;-72
2022/08/08 03:33:54;;;;;;;2.08;1.67;;;;;;;;;;4972178;28;20080;-72
2022/08/08 03:36:20;;;;;;;3.90;1.80;;;;;;;;;;4972224;28;20039;-72
2022/08/08 03:38:50;;;;;;;4.22;1.88;;;;;;;;;;4972711;28;20029;-72
2022/08/08 03:41:16;;;;;;;2.78;1.70;;;;;;;;;;4972544;28;20047;-72
2022/08/08 03:43:55;;;;;;;1.67;1.58;;;;;;;;;;5000788;28;20045;-72
2022/08/08 03:46:21;;;;;;;3.45;1.80;;;;;;;;;;5014966;28;20032;-72
2022/08/08 03:48:57;;;;;;;3.78;1.88;;;;;;;;;;5073071;28;20032;-72
2022/08/08 03:51:24;;;;;;;2.15;1.83;;;;;;;;;;5073006;28;20033;-72
2022/08/08 03:53:51;;;;;;;2.55;1.80;;;;;;;;;;5072796;28;20031;-72
2022/08/08 03:56:18;;;;;;;5.85;1.75;;;;;;;;;;5072934;28;20039;-72
2022/08/08 03:58:49;;;;;;;2.35;1.70;;;;;;;;;;5073280;28;20089;-72
2022/08/08 04:01:16;;;;;;;2.40;1.70;;;;;;;;;;5072537;28;20021;-72
2022/08/08 04:03:47;;;;;;;1.80;1.70;;;;;;;;;;5072639;28;20402;-72
2022/08/08 04:06:14;;;;;;;2.60;1.90;;;;;;;;;;5072614;28;20020;-72
2022/08/08 04:08:40;;;;;;;1.65;1.55;;;;;;;;;;5072658;28;20024;-72
2022/08/08 04:11:07;;;;;;;1.70;1.52;;;;;;;;;;5072646;28;20025;-72
2022/08/08 04:13:34;;;;;;;2.08;1.63;;;;;;;;;;5072487;28;20039;-72
2022/08/08 04:16:00;;;;;;;1.85;1.70;;;;;;;;;;5072199;28;20035;-72
2022/08/08 04:18:27;;;;;;;2.00;1.63;;;;;;;;;;5072521;28;20483;-72
2022/08/08 04:20:53;;;;;;;5.80;1.60;;;;;;;;;;5072757;28;20086;-71
2022/08/08 04:23:19;;;;;;;2.58;1.67;;;;;;;;;;5072637;28;20205;-72
2022/08/08 04:25:45;;;;;;;2.20;1.60;;;;;;;;;;5072328;28;20421;-72
2022/08/08 04:28:12;;;;;;;3.45;1.70;;;;;;;;;;5072359;28;20013;-72
2022/08/08 04:30:38;;;;;;;2.33;1.60;;;;;;;;;;5071399;28;20025;-72
2022/08/08 04:33:05;;;;;;;7.88;1.75;;;;;;;;;;5072346;28;20051;-72
2022/08/08 04:35:31;;;;;;;3.90;1.80;;;;;;;;;;5086430;28;20524;-73
2022/08/08 04:37:57;;;;;;;3.13;1.80;;;;;;;;;;5091198;28;20036;-72
2022/08/08 04:40:24;;;;;;;3.10;1.38;;;;;;;;;;5092274;28;20571;-72
2022/08/08 04:42:51;;;;;;;6.30;1.80;;;;;;;;;;5092485;28;20035;-72
2022/08/08 04:45:17;;;;;;;15.05;2.03;;;;;;;;;;5092100;28;20028;-72
2022/08/08 04:47:43;;;;;;;10.98;1.80;;;;;;;;;;5092591;28;20024;-72
2022/08/08 04:50:10;;;;;;;6.72;1.92;;;;;;;;;;5092354;28;20016;-72
2022/08/08 04:52:36;;;;;;;2.70;1.85;;;;;;;;;;5092846;28;20034;-72
2022/08/08 04:55:03;;;;;;;1.50;1.40;;;;;;;;;;5092129;28;20487;-72
2022/08/08 04:57:29;;;;;;;4.30;1.90;;;;;;;;;;5092025;28;20020;-73
2022/08/08 04:59:55;;;;;;;2.17;1.67;;;;;;;;;;5092192;28;20024;-72
2022/08/08 05:02:22;;;;;;;2.75;1.90;;;;;;;;;;5092294;28;20024;-72
2022/08/08 05:04:48;;;;;;;5.80;2.00;;;;;;;;;;5092124;28;20129;-72
2022/08/08 05:07:14;;;;;;;3.65;1.90;;;;;;;;;;5092532;28;20028;-72
2022/08/08 05:09:41;;;;;;;3.53;1.80;;;;;;;;;;5092047;28;20035;-72
2022/08/08 05:12:07;;;;;;;1.90;1.70;;;;;;;;;;5090852;28;20042;-72
2022/08/08 05:14:33;;;;;;;2.83;1.98;;;;;;;;;;5092396;28;20085;-72
2022/08/08 05:17:00;;;;;;;2.45;1.90;;;;;;;;;;5091854;28;20030;-72
2022/08/08 05:19:26;;;;;;;5.93;1.73;;;;;;;;;;5092122;28;20490;-72
2022/08/08 05:21:54;;;;;;;4.40;2.00;;;;;;;;;;5091997;28;20024;-72
2022/08/08 05:24:21;;;;;;;2.08;1.88;;;;;;;;;;5092185;28;20028;-72
2022/08/08 05:26:47;;;;;;;5.85;2.08;;;;;;;;;;5091970;28;20028;-72
2022/08/08 05:29:13;;;;;;;3.42;2.08;;;;;;;;;;5092098;28;20020;-72
2022/08/08 05:31:40;;;;;;;3.10;1.90;;;;;;;;;;5092011;28;20028;-72
2022/08/08 05:34:12;;;;;;;3.25;1.90;;;;;;;;;;5091773;28;20036;-72
2022/08/08 05:36:39;;;;;;;5.70;1.85;;;;;;;;;;5091789;28;20414;-72
2022/08/08 05:39:05;;;;;;;2.67;1.90;;;;;;;;;;5091889;28;20036;-72
2022/08/08 05:41:34;;;;;;;4.38;1.95;;;;;;;;;;5093567;28;20032;-72
2022/08/08 05:44:11;;;;;;;5.85;2.00;;;;;;;;;;5095850;28;20550;-72
2022/08/08 05:46:38;;;;;;;5.38;1.90;;;;;;;;;;5095674;28;20516;-72
2022/08/08 05:49:04;;;;;;;6.20;2.13;;;;;;;;;;5095677;28;20364;-72
2022/08/08 05:51:30;;;;;;;4.05;2.00;;;;;;;;;;5095517;28;20031;-72
2022/08/08 05:53:57;;;;;;;2.42;1.98;;;;;;;;;;5095647;28;20028;-72
2022/08/08 05:56:24;;;;;;;5.43;2.13;;;;;;;;;;5094947;28;20024;-73
2022/08/08 05:59:03;;;;;;;2.85;2.20;;;;;;;;;;5095519;28;20046;-72
2022/08/08 06:01:29;;;;;;;6.53;2.20;;;;;;;;;;5094292;28;20030;-72
2022/08/08 06:04:02;;;;;;;3.95;2.50;;;;;;;;;;5095550;28;20020;-72
2022/08/08 06:06:31;;;;;;;5.78;2.28;;;;;;;;;;5094025;28;20036;-72
2022/08/08 06:09:00;;;;;;;3.67;2.08;;;;;;;;;;5095346;28;20031;-72
2022/08/08 06:11:30;;;;;;;6.90;2.22;;;;;;;;;;5094999;28;20393;-72
2022/08/08 06:13:56;;;;;;;5.40;2.22;;;;;;;;;;5095255;28;20036;-72
2022/08/08 06:16:24;;;;;;;6.57;1.90;;;;;;;;;;5094951;28;20478;-72
2022/08/08 06:18:51;;;;;;;2.53;2.28;;;;;;;;;;5095496;28;20024;-72
2022/08/08 06:21:17;;;;;;;5.28;2.17;;;;;;;;;;5095352;28;20027;-72
2022/08/08 06:23:43;;;;;;;3.63;1.83;;;;;;;;;;5094901;28;20019;-72
2022/08/08 06:26:10;;;;;;;4.65;2.05;;;;;;;;;;5094448;28;20028;-72
2022/08/08 06:28:40;;;;;;;2.90;2.17;;;;;;;;;;5091638;28;20019;-68
2022/08/08 06:31:09;;;;;;;5.03;2.47;;;;;;;;;;5093114;28;20024;-69
2022/08/08 06:33:44;;;;;;;6.97;2.17;;;;;;;;;;5073669;28;20033;-68
2022/08/08 06:36:11;;;;;;;3.03;2.00;;;;;;;;;;5092235;28;20664;-68
2022/08/08 06:38:40;;;;;;;2.50;1.80;;;;;;;;;;5093864;28;20490;-68
2022/08/08 06:41:11;;;;;;;4.45;2.08;;;;;;;;;;5093739;28;20051;-68
2022/08/08 06:43:40;;;;;;;3.08;1.95;;;;;;;;;;5094320;28;20039;-68
2022/08/08 06:46:07;;;;;;;2.22;2.03;;;;;;;;;;5094375;28;20020;-68
2022/08/08 06:48:34;;;;;;;3.10;1.90;;;;;;;;;;5094341;28;20030;-68
2022/08/08 06:51:02;;;;;;;6.78;2.35;;;;;;;;;;5092976;28;20019;-68
2022/08/08 06:53:29;;;;;;;6.72;2.13;;;;;;;;;;5092620;28;20028;-68
2022/08/08 06:55:55;;;;;;;3.10;2.10;;;;;;;;;;5093849;28;20398;-68
2022/08/08 06:58:21;;;;;;;2.38;1.75;;;;;;;;;;5093884;28;20016;-68
2022/08/08 07:00:49;;;;;;;4.00;1.80;;;;;;;;;;5093988;28;20042;-68
2022/08/08 07:03:25;;;;;;;2.38;2.13;;;;;;;;;;5092320;28;20024;-68
2022/08/08 07:05:53;;;;;;;5.78;1.90;;;;;;;;;;5093767;28;20035;-68
2022/08/08 07:08:26;;;;;;;5.32;2.22;;;;;;;;;;5093287;28;20020;-68
2022/08/08 07:10:55;;;;;;;2.80;2.10;;;;;;;;;;5093987;28;20032;-68
2022/08/08 07:13:25;;;;;;;3.85;2.10;;;;;;;;;;5091993;28;20038;-68
2022/08/08 07:15:52;;;;;;;3.13;1.95;;;;;;;;;;5093549;28;20409;-68
2022/08/08 07:18:42;;;;;;;6.75;2.28;;;;;;;;;;5093165;28;20024;-68
2022/08/08 07:21:08;;;;;;;2.92;1.75;;;;;;;;;;5083312;28;20042;-68
2022/08/08 07:23:53;;;;;;;2.13;1.92;;;;;;;;;;5093270;28;20024;-68
2022/08/08 07:26:21;;;;;;;7.10;1.98;;;;;;;;;;5093387;28;20019;-68
2022/08/08 07:28:48;;;;;;;6.85;2.00;;;;;;;;;;5093194;28;20040;-68
2022/08/08 07:31:16;;;;;;;6.90;2.30;;;;;;;;;;5093232;28;20397;-68
2022/08/08 07:33:43;;;;;;;2.90;1.88;;;;;;;;;;5093033;28;20020;-68
2022/08/08 07:36:10;;;;;;;2.42;1.88;;;;;;;;;;5092915;28;20036;-68
2022/08/08 07:38:37;;;;;;;3.90;2.30;;;;;;;;;;5092976;28;20030;-68
2022/08/08 07:41:04;;;;;;;2.15;2.03;;;;;;;;;;5093142;28;20047;-68
2022/08/08 07:43:32;;;;;;;5.28;2.03;;;;;;;;;;5093285;28;20051;-67
2022/08/08 07:45:58;;;;;;;5.75;1.90;;;;;;;;;;5092884;28;20032;-68
2022/08/08 07:48:25;;;;;;;4.75;2.00;;;;;;;;;;5092950;28;20482;-68
2022/08/08 07:50:57;;;;;;;2.00;1.70;;;;;;;;;;5093071;28;20036;-68
2022/08/08 07:53:23;;;;;;;2.03;1.80;;;;;;;;;;5092727;28;20031;-68
2022/08/08 07:55:51;;;;;;;2.65;1.83;;;;;;;;;;5092988;28;20401;-69
2022/08/08 07:58:17;;;;;;;3.03;2.17;;;;;;;;;;5092999;28;20020;-68
2022/08/08 08:00:49;;;;;;;2.13;1.52;;;;;;;;;;5092662;28;20036;-68
2022/08/08 08:03:29;;;;;;;2.35;2.00;;;;;;;;;;5092756;28;20478;-68
2022/08/08 08:05:56;;;;;;;;;;;;;;;;;;5092133;28;20028;-68
2022/08/08 08:08:26;;;;;;;3.20;2.05;;;;;;;;;;5092163;28;19926;-67
2022/08/08 08:10:53;;;;;;;;;;;;;;;;;;5092602;28;20024;-69
2022/08/08 08:13:35;;;;;;;3.85;2.05;;;;;;;;;;5092526;28;20358;-68
2022/08/08 08:16:04;;;;;;;3.38;1.77;;;;;;;;;;5092450;28;20073;-68
2022/08/08 08:18:48;;;;;;;2.25;1.80;;;;;;;;;;5092335;28;20050;-68
2022/08/08 08:21:16;;;;;;;6.60;1.88;;;;;;;;;;5092378;28;20031;-68
2022/08/08 08:23:42;;;;;;;3.47;1.67;;;;;;;;;;5092184;28;20054;-68
2022/08/08 08:26:10;;;;;;;2.63;1.58;;;;;;;;;;5092469;28;20506;-68
2022/08/08 08:28:36;;;;;;;1.90;1.70;;;;;;;;;;5092067;28;20024;-68
2022/08/08 08:31:05;;;;;;;2.63;1.70;;;;;;;;;;5091374;28;20030;-68
2022/08/08 08:33:32;;;;;;;4.75;3.08;;;;;;;;;;5091818;28;20028;-67
2022/08/08 08:35:59;;;;;;;3.35;1.70;;;;;;;;;;5091545;28;20016;-68
2022/08/08 08:38:25;;;;;;;2.30;1.60;;;;;;;;;;5092766;28;20028;-68
2022/08/08 08:40:52;;;;;;;4.15;1.95;;;;;;;;;;5091647;28;20459;-68
2022/08/08 08:43:19;;;;;;;2.47;1.98;;;;;;;;;;5092208;28;20030;-67
2022/08/08 08:45:48;;;;;;;1.88;1.70;;;;;;;;;;5092068;28;20048;-68
2022/08/08 08:48:17;;;;;;;4.45;1.70;;;;;;;;;;5091881;28;20027;-68
2022/08/08 08:50:44;;;;;;;6.35;1.70;;;;;;;;;;5091573;28;20035;-68
2022/08/08 08:53:14;;;;;;;1.42;1.33;;;;;;;;;;5092043;28;20020;-68
2022/08/08 08:55:41;;;;;;;2.13;1.70;;;;;;;;;;5092036;28;20036;-68
2022/08/08 08:58:08;;;;;;;4.18;1.63;;;;;;;;;;5091795;28;20254;-68
2022/08/08 09:00:36;;;;;;;1.52;1.42;;;;;;;;;;5091981;28;20034;-68
2022/08/08 09:03:07;;;;;;;4.03;1.73;;;;;;;;;;5091733;28;20027;-67
2022/08/08 09:05:35;;;;;;;2.58;1.42;;;;;;;;;;5091410;28;20100;-69
2022/08/08 09:08:03;;;;;;;3.65;1.88;;;;;;;;;;5091825;28;20032;-68
2022/08/08 09:10:31;;;;;;;4.07;1.67;;;;;;;;;;5091626;28;20405;-68
2022/08/08 09:12:58;;;;;;;5.55;1.42;;;;;;;;;;5091778;28;20020;-68
2022/08/08 09:15:24;;;;;;;4.20;1.50;;;;;;;;;;5091915;28;20038;-68
2022/08/08 09:17:51;;;;;;;3.33;1.50;;;;;;;;;;5094527;28;20017;-68
2022/08/08 09:20:18;;;;;;;2.50;1.42;;;;;;;;;;5095487;28;20385;-68
2022/08/08 09:22:45;;;;;;;3.75;1.85;;;;;;;;;;5095773;28;20028;-69
2022/08/08 09:25:11;;;;;;;2.78;1.70;;;;;;;;;;5095681;28;20032;-68
2022/08/08 09:27:39;;;;;;;3.25;1.67;;;;;;;;;;5094692;28;20032;-69
2022/08/08 09:30:09;;;;;;;4.97;1.88;;;;;;;;;;5095946;28;20030;-68
2022/08/08 09:32:36;;;;;;;2.88;1.30;;;;;;;;;;5095719;28;20026;-68
2022/08/08 09:35:04;;;;;;;2.33;1.58;;;;;;;;;;5095117;28;20032;-68
2022/08/08 09:37:30;;;;;;;44.63;4.60;;;;;;;;;;5095451;28;20028;-69
2022/08/08 09:40:02;;;;;;;39.08;4.80;;;;;;;;;;5095470;28;20050;-68
2022/08/08 09:42:35;;;;;;;2.88;1.60;;;;;;;;;;5095406;28;20516;-68
2022/08/08 09:45:12;;;;;;;64.88;6.30;;;;;;;;;;5094183;28;20036;-68
2022/08/08 09:47:39;;;;;;;35.88;3.97;;;;;;;;;;5093671;28;20448;-68
2022/08/08 09:50:22;;;;;;;6.07;2.03;;;;;;;;;;5095313;28;20035;-69
2022/08/08 09:52:49;;;;;;;10.38;2.22;;;;;;;;;;5095384;28;20067;-69
2022/08/08 09:55:16;;;;;;;8.55;1.98;;;;;;;;;;5095087;28;20035;-69
2022/08/08 09:57:45;;;;;;;9.85;2.30;;;;;;;;;;5094889;28;20024;-69
2022/08/08 10:00:12;;;;;;;3.55;1.45;;;;;;;;;;5095286;28;20046;-68
2022/08/08 10:02:40;;;;;;;3.00;1.60;;;;;;;;;;5094752;28;20023;-68
2022/08/08 10:05:12;;;;;;;5.25;1.75;;;;;;;;;;5094703;28;20081;-69
2022/08/08 10:07:50;;;;;;;12.23;1.98;;;;;;;;;;5094854;28;20401;-69
2022/08/08 10:10:27;;;;;;;6.13;1.75;;;;;;;;;;5094949;28;20028;-68
2022/08/08 10:12:53;;;;;;;3.38;1.52;;;;;;;;;;5094684;28;20020;-68
2022/08/08 10:15:21;;;;;;;6.57;1.83;;;;;;;;;;5094759;28;20040;-68
2022/08/08 10:17:48;;;;;;;1.75;1.50;;;;;;;;;;5094615;28;20024;-68
2022/08/08 10:20:15;;;;;;;6.20;2.00;;;;;;;;;;5094496;28;20497;-69
2022/08/08 10:23:03;;;;;;;6.03;1.88;;;;;;;;;;5094667;28;20030;-69
2022/08/08 10:25:30;;;;;;;2.67;1.52;;;;;;;;;;5093676;28;20078;-69
2022/08/08 10:27:56;;;;;;;8.40;1.92;;;;;;;;;;5093306;28;20027;-69
2022/08/08 10:30:23;;;;;;;6.53;2.17;;;;;;;;;;5093966;28;20379;-69
2022/08/08 10:32:51;;;;;;;10.63;2.03;;;;;;;;;;5094390;28;20027;-68
2022/08/08 10:35:19;;;;;;;10.60;2.28;;;;;;;;;;5094262;28;20508;-69
2022/08/08 10:37:51;;;;;;;6.70;2.00;;;;;;;;;;5093781;28;20024;-68
2022/08/08 10:40:18;;;;;;;4.88;1.85;;;;;;;;;;5094230;28;20044;-69
2022/08/08 10:42:45;;;;;;;4.25;1.63;;;;;;;;;;5094333;28;20034;-68
2022/08/08 10:45:11;;;;;;;5.00;1.60;;;;;;;;;;5093084;28;20024;-69
2022/08/08 10:47:38;;;;;;;4.97;1.63;;;;;;;;;;5093655;28;20026;-68
2022/08/08 10:50:06;;;;;;;6.13;1.95;;;;;;;;;;5094086;28;20024;-68
2022/08/08 10:52:33;;;;;;;9.15;1.80;;;;;;;;;;5094086;28;20544;-69
2022/08/08 10:55:01;;;;;;;5.13;2.00;;;;;;;;;;5093729;28;20042;-69
2022/08/08 10:57:28;;;;;;;2.30;1.60;;;;;;;;;;5093976;28;20390;-69
2022/08/08 10:59:55;;;;;;;5.80;1.90;;;;;;;;;;5093926;28;20027;-68
2022/08/08 11:02:22;;;;;;;1.40;1.30;;;;;;;;;;5093564;28;20508;-68
2022/08/08 11:04:49;;;;;;;5.43;1.50;;;;;;;;;;5094013;28;20022;-69
2022/08/08 11:07:29;;;;;;;4.45;1.60;;;;;;;;;;5093754;28;20024;-69
2022/08/08 11:09:55;;;;;;;4.25;2.00;;;;;;;;;;5094171;28;20031;-68
2022/08/08 11:12:22;;;;;;;4.15;1.60;;;;;;;;;;5093740;28;20034;-68
2022/08/08 11:14:52;;;;;;;2.15;1.20;;;;;;;;;;5093218;28;20040;-69
2022/08/08 11:17:21;;;;;;;3.72;1.50;;;;;;;;;;5093418;28;20050;-69
2022/08/08 11:19:48;;;;;;;8.73;2.92;;;;;;;;;;5093558;28;20016;-69
2022/08/08 11:22:16;;;;;;;3.92;1.58;;;;;;;;;;5093533;28;20016;-69
2022/08/08 11:24:44;;;;;;;5.47;1.70;;;;;;;;;;5092266;28;20034;-68
2022/08/08 11:27:10;;;;;;;2.83;1.50;;;;;;;;;;5093405;28;20028;-69
2022/08/08 11:29:37;;;;;;;52.33;4.40;;;;;;;;;;5092944;28;20024;-69
2022/08/08 11:32:04;;;;;;;4.80;1.55;;;;;;;;;;5093630;28;20032;-68
2022/08/08 11:34:32;;;;;;;39.85;4.15;;;;;;;;;;5074868;28;20040;-70
2022/08/08 11:37:00;;;;;;;2.38;1.38;;;;;;;;;;5093269;28;20028;-68
2022/08/08 11:39:28;;;;;;;8.30;1.75;;;;;;;;;;5092734;28;20040;-68
2022/08/08 11:41:55;;;;;;;23.23;3.35;;;;;;;;;;5093221;28;20028;-69
2022/08/08 11:44:22;;;;;;;3.83;1.40;;;;;;;;;;5093022;28;20016;-68
2022/08/08 11:46:52;;;;;;;4.15;1.40;;;;;;;;;;5092974;28;20094;-68
2022/08/08 11:49:19;;;;;;;5.87;1.43;;;;;;;;;;5092979;28;20032;-69
2022/08/08 11:51:45;;;;;;;3.70;1.90;;;;;;;;;;5092922;28;20027;-68
2022/08/08 11:54:11;;;;;;;3.13;1.48;;;;;;;;;;5092594;28;20032;-68
2022/08/08 11:56:38;;;;;;;1.23;1.08;;;;;;;;;;5092984;28;20046;-69
2022/08/08 11:59:06;;;;;;;9.63;1.70;;;;;;;;;;5092425;28;20031;-68
2022/08/08 12:01:33;;;;;;;3.78;1.50;;;;;;;;;;5092613;28;20024;-68
2022/08/08 12:04:00;;;;;;;10.90;1.73;;;;;;;;;;5092726;28;20012;-68
2022/08/08 12:06:26;;;;;;;10.57;1.65;;;;;;;;;;5092823;28;20412;-68
2022/08/08 12:08:52;;;;;;;3.92;1.50;;;;;;;;;;5092627;28;20024;-68
2022/08/08 12:11:19;;;;;;;5.28;1.45;;;;;;;;;;5092510;28;20040;-69
2022/08/08 12:13:49;;;;;;;17.85;2.35;;;;;;;;;;5092219;28;20024;-68
2022/08/08 12:16:16;;;;;;;2.80;1.50;;;;;;;;;;5092414;28;20030;-69
2022/08/08 12:19:03;;;;;;;2.28;1.27;;;;;;;;;;5092421;28;20024;-69
2022/08/08 12:21:31;;;;;;;2.65;1.40;;;;;;;;;;5092153;28;20031;-69
2022/08/08 12:24:04;;;;;;;2.25;1.27;;;;;;;;;;5092059;28;20027;-69
2022/08/08 12:26:35;;;;;;;2.17;1.13;;;;;;;;;;5091827;28;20024;-69
2022/08/08 12:29:02;;;;;;;1.70;1.30;;;;;;;;;;5092144;28;20026;-68
2022/08/08 12:31:35;;;;;;;1.10;1.00;;;;;;;;;;5092256;28;20034;-68
2022/08/08 12:34:01;;;;;;;1.35;1.25;;;;;;;;;;5091862;28;20046;-69
2022/08/08 12:36:40;;;;;;;2.60;1.13;;;;;;;;;;5091716;28;20401;-68
2022/08/08 12:39:07;;;;;;;3.22;1.33;;;;;;;;;;5091949;28;20393;-69
2022/08/08 12:41:37;;;;;;;2.90;1.40;;;;;;;;;;5091773;28;20028;-68
2022/08/08 12:44:07;;;;;;;3.30;1.23;;;;;;;;;;5090758;28;20020;-69
2022/08/08 12:46:34;;;;;;;1.38;1.10;;;;;;;;;;5092316;28;20034;-68
2022/08/08 12:49:01;;;;;;;4.43;1.30;;;;;;;;;;5092129;28;20020;-69
2022/08/08 12:51:39;;;;;;;1.63;1.08;;;;;;;;;;5091316;28;20436;-68
2022/08/08 12:54:06;;;;;;;1.20;1.10;;;;;;;;;;5092250;28;20021;-68
2022/08/08 12:56:37;;;;;;;1.75;1.38;;;;;;;;;;5091566;28;20024;-69
2022/08/08 12:59:22;;;;;;;1.48;1.15;;;;;;;;;;5091776;28;20381;-69
2022/08/08 13:01:50;;;;;;;1.30;1.20;;;;;;;;;;5089722;28;20024;-69
2022/08/08 13:04:18;;;;;;;1.15;1.00;;;;;;;;;;5091746;28;20024;-69
2022/08/08 13:06:54;;;;;;;5.10;1.55;;;;;;;;;;5091668;28;20028;-68
2022/08/08 13:09:31;;;;;;;2.38;1.20;;;;;;;;;;5091969;28;20012;-69
2022/08/08 13:11:57;;;;;;;2.55;1.10;;;;;;;;;;5091462;28;20029;-69
2022/08/08 13:14:36;;;;;;;4.22;1.20;;;;;;;;;;5091715;28;20024;-69
2022/08/08 13:17:03;;;;;;;1.77;1.10;;;;;;;;;;5091642;28;20031;-68
2022/08/08 13:19:30;;;;;;;1.40;1.13;;;;;;;;;;5091663;28;20040;-69
2022/08/08 13:21:56;;;;;;;1.17;0.98;;;;;;;;;;5091871;28;20024;-69
2022/08/08 13:24:23;;;;;;;8.98;1.27;;;;;;;;;;5091752;28;20502;-68
2022/08/08 13:26:59;;;;;;;1.13;1.00;;;;;;;;;;5091435;28;20030;-68
2022/08/08 13:29:26;;;;;;;1.90;1.00;;;;;;;;;;5091728;28;20401;-68
2022/08/08 13:31:52;;;;;;;2.55;1.40;;;;;;;;;;5091384;28;20092;-69
2022/08/08 13:34:23;;;;;;;2.53;1.20;;;;;;;;;;5091343;28;20028;-68
2022/08/08 13:36:53;;;;;;;2.08;1.30;;;;;;;;;;5091127;28;20036;-69
2022/08/08 13:39:20;;;;;;;2.10;1.20;;;;;;;;;;5091478;28;20036;-69
2022/08/08 13:41:47;;;;;;;1.95;1.10;;;;;;;;;;5090991;28;20031;-69
2022/08/08 13:44:13;;;;;;;2.20;1.10;;;;;;;;;;5091342;28;20028;-69
2022/08/08 13:46:40;;;;;;;1.15;1.00;;;;;;;;;;5091632;28;20416;-69
2022/08/08 13:49:16;;;;;;;1.42;1.00;;;;;;;;;;5090222;28;20020;-69
2022/08/08 13:51:56;;;;;;;1.23;1.02;;;;;;;;;;5091371;28;20022;-68
2022/08/08 13:54:23;;;;;;;1.33;1.23;;;;;;;;;;5090943;28;20028;-69
2022/08/08 13:56:59;;;;;;;0.90;0.90;;;;;;;;;;5091409;28;20474;-69
2022/08/08 13:59:29;;;;;;;3.08;1.20;;;;;;;;;;5091672;28;20032;-69
2022/08/08 14:01:56;;;;;;;1.55;0.93;;;;;;;;;;5090952;28;20089;-69
2022/08/08 14:04:24;;;;;;;1.33;1.08;;;;;;;;;;5095180;28;20038;-69
2022/08/08 14:07:01;;;;;;;1.20;1.10;;;;;;;;;;5094808;28;20591;-69
2022/08/08 14:09:35;;;;;;;2.22;1.05;;;;;;;;;;5094687;28;20024;-68
2022/08/08 14:12:04;;;;;;;0.98;0.90;;;;;;;;;;5094917;28;20020;-69
2022/08/08 14:14:35;;;;;;;1.63;1.20;;;;;;;;;;5094808;28;20409;-68
2022/08/08 14:17:05;;;;;;;1.38;0.98;;;;;;;;;;5095028;28;20251;-68
2022/08/08 14:19:34;;;;;;;1.83;0.85;;;;;;;;;;5095008;28;20032;-69
2022/08/08 14:22:01;;;;;;;2.38;1.20;;;;;;;;;;5095062;28;20032;-68
2022/08/08 14:24:33;;;;;;;1.50;1.10;;;;;;;;;;5094781;28;20486;-69
2022/08/08 14:27:00;;;;;;;1.35;1.10;;;;;;;;;;5094778;28;20026;-68
2022/08/08 14:29:26;;;;;;;0.80;0.80;;;;;;;;;;5094903;28;20028;-69
2022/08/08 14:31:52;;;;;;;1.10;1.00;;;;;;;;;;5095146;28;20024;-68
2022/08/08 14:34:19;;;;;;;1.20;1.10;;;;;;;;;;5094486;28;20028;-68
2022/08/08 14:36:49;;;;;;;1.10;1.00;;;;;;;;;;5094734;28;20038;-69
2022/08/08 14:39:15;;;;;;;;;;;;;;;;;;5094509;28;20440;-68
2022/08/08 14:41:43;;;;;;;1.20;1.10;;;;;;;;;;5093408;28;19908;-69
2022/08/08 14:44:10;;;;;;;1.15;1.02;;;;;;;;;;5094490;28;20019;-69
2022/08/08 14:46:36;;;;;;;3.47;1.10;;;;;;;;;;5094602;28;20039;-68
2022/08/08 14:49:08;;;;;;;1.35;1.17;;;;;;;;;;5094572;28;20021;-68
2022/08/08 14:51:39;;;;;;;0.90;0.90;;;;;;;;;;5094503;28;20020;-68
2022/08/08 14:54:05;;;;;;;2.38;0.88;;;;;;;;;;5090072;28;20029;-69
2022/08/08 14:56:34;;;;;;;1.10;1.00;;;;;;;;;;5093914;28;20029;-68
2022/08/08 14:59:00;;;;;;;1.20;1.08;;;;;;;;;;5093988;28;20020;-69
2022/08/08 15:01:28;;;;;;;1.45;0.85;;;;;;;;;;5093970;28;20408;-68
2022/08/08 15:03:54;;;;;;;0.98;0.90;;;;;;;;;;5094076;28;20432;-73
2022/08/08 15:06:20;;;;;;;3.50;1.10;;;;;;;;;;5094246;28;20045;-73